sensor_id;sensor_type;location;lat;lon;timestamp;temperature;humidity
59973;DHT22;55298;-36.624;-64.282;2023-09-19T00:00:15;14.00;30.30
59973;DHT22;55298;-36.624;-64.282;2023-09-19T00:05:26;13.90;30.10
59973;DHT22;55298;-36.624;-64.282;2023-09-19T00:07:57;13.90;30.10
59973;DHT22;55298;-36.624;-64.282;2023-09-19T00:10:27;13.80;30.20
59973;DHT22;55298;-36.624;-64.282;2023-09-19T00:12:58;13.80;30.10
59973;DHT22;55298;-36.624;-64.282;2023-09-19T00:15:27;13.70;30.30
59973;DHT22;55298;-36.624;-64.282;2023-09-19T00:17:56;13.60;30.50
59973;DHT22;55298;-36.624;-64.282;2023-09-19T00:20:25;13.50;30.80
59973;DHT22;55298;-36.624;-64.282;2023-09-19T00:22:56;13.50;31.10
59973;DHT22;55298;-36.624;-64.282;2023-09-19T00:25:26;13.30;31.30
59973;DHT22;55298;-36.624;-64.282;2023-09-19T00:27:55;13.20;31.50
59973;DHT22;55298;-36.624;-64.282;2023-09-19T00:30:25;13.20;31.70
59973;DHT22;55298;-36.624;-64.282;2023-09-19T00:32:53;13.10;32.00
59973;DHT22;55298;-36.624;-64.282;2023-09-19T00:35:22;13.00;32.10
59973;DHT22;55298;-36.624;-64.282;2023-09-19T00:37:52;13.00;32.80
59973;DHT22;55298;-36.624;-64.282;2023-09-19T00:40:21;12.90;32.60
59973;DHT22;55298;-36.624;-64.282;2023-09-19T00:42:49;12.80;32.70
59973;DHT22;55298;-36.624;-64.282;2023-09-19T00:45:18;12.80;32.90
59973;DHT22;55298;-36.624;-64.282;2023-09-19T00:47:50;12.70;33.10
59973;DHT22;55298;-36.624;-64.282;2023-09-19T00:50:23;12.60;32.80
59973;DHT22;55298;-36.624;-64.282;2023-09-19T00:52:55;12.60;33.10
59973;DHT22;55298;-36.624;-64.282;2023-09-19T00:55:24;12.50;33.20
59973;DHT22;55298;-36.624;-64.282;2023-09-19T00:57:53;12.50;33.20
59973;DHT22;55298;-36.624;-64.282;2023-09-19T01:00:23;12.50;33.30
59973;DHT22;55298;-36.624;-64.282;2023-09-19T01:02:51;12.30;33.40
59973;DHT22;55298;-36.624;-64.282;2023-09-19T01:05:19;12.30;33.70
59973;DHT22;55298;-36.624;-64.282;2023-09-19T01:07:49;12.20;34.40
59973;DHT22;55298;-36.624;-64.282;2023-09-19T01:10:19;12.10;34.00
59973;DHT22;55298;-36.624;-64.282;2023-09-19T01:16:07;12.00;34.60
59973;DHT22;55298;-36.624;-64.282;2023-09-19T01:18:52;11.90;34.70
59973;DHT22;55298;-36.624;-64.282;2023-09-19T01:21:46;11.90;35.20
59973;DHT22;55298;-36.624;-64.282;2023-09-19T01:24:34;11.80;35.20
59973;DHT22;55298;-36.624;-64.282;2023-09-19T01:27:36;11.70;35.40
59973;DHT22;55298;-36.624;-64.282;2023-09-19T01:30:13;11.70;36.10
59973;DHT22;55298;-36.624;-64.282;2023-09-19T01:32:42;11.70;35.80
59973;DHT22;55298;-36.624;-64.282;2023-09-19T01:35:13;11.60;36.70
59973;DHT22;55298;-36.624;-64.282;2023-09-19T01:37:41;11.60;36.30
59973;DHT22;55298;-36.624;-64.282;2023-09-19T01:40:12;11.50;36.50
59973;DHT22;55298;-36.624;-64.282;2023-09-19T01:42:53;11.40;36.80
59973;DHT22;55298;-36.624;-64.282;2023-09-19T01:48:40;11.40;37.20
59973;DHT22;55298;-36.624;-64.282;2023-09-19T01:51:10;11.30;37.60
59973;DHT22;55298;-36.624;-64.282;2023-09-19T01:54:00;11.30;37.90
59973;DHT22;55298;-36.624;-64.282;2023-09-19T01:56:42;11.30;38.10
59973;DHT22;55298;-36.624;-64.282;2023-09-19T01:59:16;11.30;38.30
59973;DHT22;55298;-36.624;-64.282;2023-09-19T02:01:46;11.40;38.60
59973;DHT22;55298;-36.624;-64.282;2023-09-19T02:04:14;11.30;38.80
59973;DHT22;55298;-36.624;-64.282;2023-09-19T02:06:42;11.50;39.10
59973;DHT22;55298;-36.624;-64.282;2023-09-19T02:09:10;11.40;39.10
59973;DHT22;55298;-36.624;-64.282;2023-09-19T02:11:38;11.40;39.30
59973;DHT22;55298;-36.624;-64.282;2023-09-19T02:14:06;11.50;39.40
59973;DHT22;55298;-36.624;-64.282;2023-09-19T02:16:35;11.40;39.60
59973;DHT22;55298;-36.624;-64.282;2023-09-19T02:19:04;11.50;39.70
59973;DHT22;55298;-36.624;-64.282;2023-09-19T02:21:32;11.50;39.80
59973;DHT22;55298;-36.624;-64.282;2023-09-19T02:24:00;11.50;39.90
59973;DHT22;55298;-36.624;-64.282;2023-09-19T02:26:31;11.50;39.90
59973;DHT22;55298;-36.624;-64.282;2023-09-19T02:28:58;11.40;40.20
59973;DHT22;55298;-36.624;-64.282;2023-09-19T02:31:27;11.30;40.40
59973;DHT22;55298;-36.624;-64.282;2023-09-19T02:33:57;11.20;40.80
59973;DHT22;55298;-36.624;-64.282;2023-09-19T02:36:27;11.10;41.10
59973;DHT22;55298;-36.624;-64.282;2023-09-19T02:38:54;11.00;41.50
59973;DHT22;55298;-36.624;-64.282;2023-09-19T02:41:22;10.90;41.80
59973;DHT22;55298;-36.624;-64.282;2023-09-19T02:43:51;10.80;42.10
59973;DHT22;55298;-36.624;-64.282;2023-09-19T02:46:19;10.80;42.40
59973;DHT22;55298;-36.624;-64.282;2023-09-19T02:48:47;10.70;42.70
59973;DHT22;55298;-36.624;-64.282;2023-09-19T02:51:16;10.60;42.90
59973;DHT22;55298;-36.624;-64.282;2023-09-19T02:53:45;10.60;43.00
59973;DHT22;55298;-36.624;-64.282;2023-09-19T02:56:14;10.60;43.20
59973;DHT22;55298;-36.624;-64.282;2023-09-19T02:58:42;10.60;43.20
59973;DHT22;55298;-36.624;-64.282;2023-09-19T03:01:12;10.50;43.50
59973;DHT22;55298;-36.624;-64.282;2023-09-19T03:03:41;10.50;43.60
59973;DHT22;55298;-36.624;-64.282;2023-09-19T03:06:09;10.50;43.70
59973;DHT22;55298;-36.624;-64.282;2023-09-19T03:08:37;10.40;43.90
59973;DHT22;55298;-36.624;-64.282;2023-09-19T03:11:06;10.30;44.00
59973;DHT22;55298;-36.624;-64.282;2023-09-19T03:13:36;10.30;44.20
59973;DHT22;55298;-36.624;-64.282;2023-09-19T03:16:05;10.30;44.40
59973;DHT22;55298;-36.624;-64.282;2023-09-19T03:18:35;10.20;44.60
59973;DHT22;55298;-36.624;-64.282;2023-09-19T03:21:02;10.20;44.70
59973;DHT22;55298;-36.624;-64.282;2023-09-19T03:23:30;10.20;44.80
59973;DHT22;55298;-36.624;-64.282;2023-09-19T03:25:58;10.20;44.70
59973;DHT22;55298;-36.624;-64.282;2023-09-19T03:28:26;10.10;44.80
59973;DHT22;55298;-36.624;-64.282;2023-09-19T03:31:04;10.10;45.00
59973;DHT22;55298;-36.624;-64.282;2023-09-19T03:33:33;10.10;45.20
59973;DHT22;55298;-36.624;-64.282;2023-09-19T03:36:02;10.00;45.30
59973;DHT22;55298;-36.624;-64.282;2023-09-19T03:38:34;10.00;45.50
59973;DHT22;55298;-36.624;-64.282;2023-09-19T03:41:02;10.00;45.60
59973;DHT22;55298;-36.624;-64.282;2023-09-19T03:43:31;10.00;45.80
59973;DHT22;55298;-36.624;-64.282;2023-09-19T03:46:02;10.00;45.90
59973;DHT22;55298;-36.624;-64.282;2023-09-19T03:48:31;10.00;46.10
59973;DHT22;55298;-36.624;-64.282;2023-09-19T03:51:00;10.00;46.00
59973;DHT22;55298;-36.624;-64.282;2023-09-19T03:53:28;9.90;46.30
59973;DHT22;55298;-36.624;-64.282;2023-09-19T03:55:56;9.90;46.50
59973;DHT22;55298;-36.624;-64.282;2023-09-19T03:58:24;9.90;46.40
59973;DHT22;55298;-36.624;-64.282;2023-09-19T04:00:56;9.80;46.80
59973;DHT22;55298;-36.624;-64.282;2023-09-19T04:03:25;9.70;46.80
59973;DHT22;55298;-36.624;-64.282;2023-09-19T04:06:01;9.60;47.10
59973;DHT22;55298;-36.624;-64.282;2023-09-19T04:08:30;9.60;47.20
59973;DHT22;55298;-36.624;-64.282;2023-09-19T04:10:58;9.60;47.40
59973;DHT22;55298;-36.624;-64.282;2023-09-19T04:13:26;9.50;47.40
59973;DHT22;55298;-36.624;-64.282;2023-09-19T04:15:55;9.50;47.50
59973;DHT22;55298;-36.624;-64.282;2023-09-19T04:18:23;9.50;47.60
59973;DHT22;55298;-36.624;-64.282;2023-09-19T04:20:51;9.50;47.90
59973;DHT22;55298;-36.624;-64.282;2023-09-19T04:23:19;9.40;48.10
59973;DHT22;55298;-36.624;-64.282;2023-09-19T04:25:47;9.40;48.20
59973;DHT22;55298;-36.624;-64.282;2023-09-19T04:28:15;9.40;48.40
59973;DHT22;55298;-36.624;-64.282;2023-09-19T04:30:44;9.40;48.60
59973;DHT22;55298;-36.624;-64.282;2023-09-19T04:33:12;9.30;48.80
59973;DHT22;55298;-36.624;-64.282;2023-09-19T04:35:41;9.30;49.00
59973;DHT22;55298;-36.624;-64.282;2023-09-19T04:38:10;9.40;49.10
59973;DHT22;55298;-36.624;-64.282;2023-09-19T04:40:38;9.30;49.40
59973;DHT22;55298;-36.624;-64.282;2023-09-19T04:43:06;9.30;49.60
59973;DHT22;55298;-36.624;-64.282;2023-09-19T04:45:34;9.30;49.80
59973;DHT22;55298;-36.624;-64.282;2023-09-19T04:48:02;9.30;50.00
59973;DHT22;55298;-36.624;-64.282;2023-09-19T04:50:29;9.30;50.30
59973;DHT22;55298;-36.624;-64.282;2023-09-19T04:52:58;9.30;50.40
59973;DHT22;55298;-36.624;-64.282;2023-09-19T04:55:25;9.30;50.50
59973;DHT22;55298;-36.624;-64.282;2023-09-19T04:57:53;9.30;50.60
59973;DHT22;55298;-36.624;-64.282;2023-09-19T05:00:22;9.30;50.70
59973;DHT22;55298;-36.624;-64.282;2023-09-19T05:02:55;9.30;51.50
59973;DHT22;55298;-36.624;-64.282;2023-09-19T05:05:23;9.30;51.10
59973;DHT22;55298;-36.624;-64.282;2023-09-19T05:07:52;9.30;51.40
59973;DHT22;55298;-36.624;-64.282;2023-09-19T05:10:22;9.30;51.40
59973;DHT22;55298;-36.624;-64.282;2023-09-19T05:12:53;9.30;51.40
59973;DHT22;55298;-36.624;-64.282;2023-09-19T05:15:22;9.20;51.60
59973;DHT22;55298;-36.624;-64.282;2023-09-19T05:17:51;9.20;51.70
59973;DHT22;55298;-36.624;-64.282;2023-09-19T05:20:22;9.10;52.10
59973;DHT22;55298;-36.624;-64.282;2023-09-19T05:23:07;9.00;52.10
59973;DHT22;55298;-36.624;-64.282;2023-09-19T05:25:37;9.10;52.30
59973;DHT22;55298;-36.624;-64.282;2023-09-19T05:28:08;9.00;52.50
59973;DHT22;55298;-36.624;-64.282;2023-09-19T05:30:38;9.00;52.60
59973;DHT22;55298;-36.624;-64.282;2023-09-19T05:33:06;8.90;53.00
59973;DHT22;55298;-36.624;-64.282;2023-09-19T05:35:35;8.90;53.00
59973;DHT22;55298;-36.624;-64.282;2023-09-19T05:38:06;8.90;53.30
59973;DHT22;55298;-36.624;-64.282;2023-09-19T05:40:36;8.80;53.50
59973;DHT22;55298;-36.624;-64.282;2023-09-19T05:43:05;8.80;53.80
59973;DHT22;55298;-36.624;-64.282;2023-09-19T05:45:33;8.80;53.90
59973;DHT22;55298;-36.624;-64.282;2023-09-19T05:48:09;8.80;54.00
59973;DHT22;55298;-36.624;-64.282;2023-09-19T05:50:39;8.70;54.20
59973;DHT22;55298;-36.624;-64.282;2023-09-19T05:53:07;8.70;54.40
59973;DHT22;55298;-36.624;-64.282;2023-09-19T05:55:41;8.60;54.50
59973;DHT22;55298;-36.624;-64.282;2023-09-19T05:58:09;8.60;54.60
59973;DHT22;55298;-36.624;-64.282;2023-09-19T06:00:40;8.60;54.60
59973;DHT22;55298;-36.624;-64.282;2023-09-19T06:03:10;8.60;55.00
59973;DHT22;55298;-36.624;-64.282;2023-09-19T06:05:40;8.50;55.30
59973;DHT22;55298;-36.624;-64.282;2023-09-19T06:08:08;8.50;55.50
59973;DHT22;55298;-36.624;-64.282;2023-09-19T06:10:36;8.50;55.60
59973;DHT22;55298;-36.624;-64.282;2023-09-19T06:13:04;8.50;55.80
59973;DHT22;55298;-36.624;-64.282;2023-09-19T06:15:33;8.50;56.10
59973;DHT22;55298;-36.624;-64.282;2023-09-19T06:18:03;8.50;55.70
59973;DHT22;55298;-36.624;-64.282;2023-09-19T06:20:31;8.50;56.20
59973;DHT22;55298;-36.624;-64.282;2023-09-19T06:22:59;8.40;56.00
59973;DHT22;55298;-36.624;-64.282;2023-09-19T06:25:29;8.50;56.30
59973;DHT22;55298;-36.624;-64.282;2023-09-19T06:27:57;8.50;56.50
59973;DHT22;55298;-36.624;-64.282;2023-09-19T06:30:25;8.50;56.70
59973;DHT22;55298;-36.624;-64.282;2023-09-19T06:33:00;8.50;56.80
59973;DHT22;55298;-36.624;-64.282;2023-09-19T06:35:33;8.50;56.90
59973;DHT22;55298;-36.624;-64.282;2023-09-19T06:38:04;8.60;56.80
59973;DHT22;55298;-36.624;-64.282;2023-09-19T06:40:33;8.50;57.00
59973;DHT22;55298;-36.624;-64.282;2023-09-19T06:43:01;8.50;57.10
59973;DHT22;55298;-36.624;-64.282;2023-09-19T06:45:29;8.50;57.00
59973;DHT22;55298;-36.624;-64.282;2023-09-19T06:47:58;8.50;57.10
59973;DHT22;55298;-36.624;-64.282;2023-09-19T06:50:27;8.50;57.30
59973;DHT22;55298;-36.624;-64.282;2023-09-19T06:52:57;8.50;57.40
59973;DHT22;55298;-36.624;-64.282;2023-09-19T06:55:27;8.50;58.10
59973;DHT22;55298;-36.624;-64.282;2023-09-19T06:57:58;8.40;57.50
59973;DHT22;55298;-36.624;-64.282;2023-09-19T07:00:26;8.40;57.60
59973;DHT22;55298;-36.624;-64.282;2023-09-19T07:03:05;8.40;57.90
59973;DHT22;55298;-36.624;-64.282;2023-09-19T07:05:35;8.40;58.10
59973;DHT22;55298;-36.624;-64.282;2023-09-19T07:08:04;8.30;58.30
59973;DHT22;55298;-36.624;-64.282;2023-09-19T07:10:34;8.30;58.50
59973;DHT22;55298;-36.624;-64.282;2023-09-19T07:13:04;8.30;58.60
59973;DHT22;55298;-36.624;-64.282;2023-09-19T07:15:36;8.30;58.70
59973;DHT22;55298;-36.624;-64.282;2023-09-19T07:18:08;8.20;58.70
59973;DHT22;55298;-36.624;-64.282;2023-09-19T07:20:37;8.00;58.70
59973;DHT22;55298;-36.624;-64.282;2023-09-19T07:23:05;8.20;58.90
59973;DHT22;55298;-36.624;-64.282;2023-09-19T07:25:34;8.10;58.80
59973;DHT22;55298;-36.624;-64.282;2023-09-19T07:28:03;8.10;58.90
59973;DHT22;55298;-36.624;-64.282;2023-09-19T07:30:31;8.10;59.10
59973;DHT22;55298;-36.624;-64.282;2023-09-19T07:32:59;8.00;59.10
59973;DHT22;55298;-36.624;-64.282;2023-09-19T07:35:27;8.00;59.30
59973;DHT22;55298;-36.624;-64.282;2023-09-19T07:37:55;7.70;59.50
59973;DHT22;55298;-36.624;-64.282;2023-09-19T07:40:25;7.90;59.80
59973;DHT22;55298;-36.624;-64.282;2023-09-19T07:42:53;7.90;60.00
59973;DHT22;55298;-36.624;-64.282;2023-09-19T07:45:21;7.90;60.00
59973;DHT22;55298;-36.624;-64.282;2023-09-19T07:47:51;7.80;60.10
59973;DHT22;55298;-36.624;-64.282;2023-09-19T07:50:19;7.80;60.50
59973;DHT22;55298;-36.624;-64.282;2023-09-19T07:52:48;7.70;60.70
59973;DHT22;55298;-36.624;-64.282;2023-09-19T07:55:20;7.80;60.80
59973;DHT22;55298;-36.624;-64.282;2023-09-19T07:57:50;7.80;61.00
59973;DHT22;55298;-36.624;-64.282;2023-09-19T08:00:18;7.80;61.00
59973;DHT22;55298;-36.624;-64.282;2023-09-19T08:02:46;7.80;60.70
59973;DHT22;55298;-36.624;-64.282;2023-09-19T08:05:14;7.80;60.60
59973;DHT22;55298;-36.624;-64.282;2023-09-19T08:07:44;7.80;60.70
59973;DHT22;55298;-36.624;-64.282;2023-09-19T08:10:19;7.80;60.80
59973;DHT22;55298;-36.624;-64.282;2023-09-19T08:12:48;7.80;60.80
59973;DHT22;55298;-36.624;-64.282;2023-09-19T08:15:17;7.80;60.80
59973;DHT22;55298;-36.624;-64.282;2023-09-19T08:17:47;7.70;60.80
59973;DHT22;55298;-36.624;-64.282;2023-09-19T08:20:15;7.90;61.00
59973;DHT22;55298;-36.624;-64.282;2023-09-19T08:22:48;7.80;60.90
59973;DHT22;55298;-36.624;-64.282;2023-09-19T08:25:19;7.80;60.90
59973;DHT22;55298;-36.624;-64.282;2023-09-19T08:27:49;7.90;60.90
59973;DHT22;55298;-36.624;-64.282;2023-09-19T08:30:19;7.90;61.00
59973;DHT22;55298;-36.624;-64.282;2023-09-19T08:32:51;7.90;61.00
59973;DHT22;55298;-36.624;-64.282;2023-09-19T08:35:25;8.10;61.20
59973;DHT22;55298;-36.624;-64.282;2023-09-19T08:37:52;7.70;61.00
59973;DHT22;55298;-36.624;-64.282;2023-09-19T08:40:22;7.90;61.30
59973;DHT22;55298;-36.624;-64.282;2023-09-19T08:42:53;7.80;61.10
59973;DHT22;55298;-36.624;-64.282;2023-09-19T08:45:22;7.90;61.40
59973;DHT22;55298;-36.624;-64.282;2023-09-19T08:51:18;7.90;62.40
59973;DHT22;55298;-36.624;-64.282;2023-09-19T08:56:20;7.90;61.90
59973;DHT22;55298;-36.624;-64.282;2023-09-19T09:01:30;7.90;62.30
59973;DHT22;55298;-36.624;-64.282;2023-09-19T09:04:00;8.00;62.50
59973;DHT22;55298;-36.624;-64.282;2023-09-19T09:06:29;8.00;62.50
59973;DHT22;55298;-36.624;-64.282;2023-09-19T09:08:59;8.00;62.60
59973;DHT22;55298;-36.624;-64.282;2023-09-19T09:11:27;8.00;62.50
59973;DHT22;55298;-36.624;-64.282;2023-09-19T09:13:55;8.10;62.50
59973;DHT22;55298;-36.624;-64.282;2023-09-19T09:16:24;7.90;62.60
59973;DHT22;55298;-36.624;-64.282;2023-09-19T09:18:52;8.10;62.70
59973;DHT22;55298;-36.624;-64.282;2023-09-19T09:21:24;8.10;63.00
59973;DHT22;55298;-36.624;-64.282;2023-09-19T09:23:52;8.10;63.30
59973;DHT22;55298;-36.624;-64.282;2023-09-19T09:26:42;8.00;63.40
59973;DHT22;55298;-36.624;-64.282;2023-09-19T09:29:10;8.10;63.30
59973;DHT22;55298;-36.624;-64.282;2023-09-19T09:31:38;8.00;63.30
59973;DHT22;55298;-36.624;-64.282;2023-09-19T09:34:09;8.20;63.30
59973;DHT22;55298;-36.624;-64.282;2023-09-19T09:36:42;8.30;63.60
59973;DHT22;55298;-36.624;-64.282;2023-09-19T09:39:15;8.20;63.50
59973;DHT22;55298;-36.624;-64.282;2023-09-19T09:41:58;8.20;64.00
59973;DHT22;55298;-36.624;-64.282;2023-09-19T09:44:26;8.30;64.10
59973;DHT22;55298;-36.624;-64.282;2023-09-19T09:46:58;8.20;64.10
59973;DHT22;55298;-36.624;-64.282;2023-09-19T09:49:48;8.20;64.20
59973;DHT22;55298;-36.624;-64.282;2023-09-19T09:52:21;8.20;64.50
59973;DHT22;55298;-36.624;-64.282;2023-09-19T09:55:00;8.20;64.50
59973;DHT22;55298;-36.624;-64.282;2023-09-19T09:57:32;8.20;64.70
59973;DHT22;55298;-36.624;-64.282;2023-09-19T10:00:01;8.20;64.80
59973;DHT22;55298;-36.624;-64.282;2023-09-19T10:02:43;8.10;64.30
59973;DHT22;55298;-36.624;-64.282;2023-09-19T10:05:16;8.20;65.00
59973;DHT22;55298;-36.624;-64.282;2023-09-19T10:08:11;8.10;64.80
59973;DHT22;55298;-36.624;-64.282;2023-09-19T10:10:40;8.00;65.50
59973;DHT22;55298;-36.624;-64.282;2023-09-19T10:13:21;8.00;65.80
59973;DHT22;55298;-36.624;-64.282;2023-09-19T10:15:52;7.90;66.40
59973;DHT22;55298;-36.624;-64.282;2023-09-19T10:18:23;7.80;66.70
59973;DHT22;55298;-36.624;-64.282;2023-09-19T10:20:52;7.80;67.20
59973;DHT22;55298;-36.624;-64.282;2023-09-19T10:23:21;7.70;67.50
59973;DHT22;55298;-36.624;-64.282;2023-09-19T10:25:51;7.50;67.60
59973;DHT22;55298;-36.624;-64.282;2023-09-19T10:28:20;7.60;67.70
59973;DHT22;55298;-36.624;-64.282;2023-09-19T10:30:50;7.60;67.70
59973;DHT22;55298;-36.624;-64.282;2023-09-19T10:33:21;7.60;67.80
59973;DHT22;55298;-36.624;-64.282;2023-09-19T10:35:51;7.50;68.00
59973;DHT22;55298;-36.624;-64.282;2023-09-19T10:38:22;7.50;68.20
59973;DHT22;55298;-36.624;-64.282;2023-09-19T10:40:52;7.60;68.50
59973;DHT22;55298;-36.624;-64.282;2023-09-19T10:43:25;7.60;68.00
59973;DHT22;55298;-36.624;-64.282;2023-09-19T10:45:58;7.60;68.70
59973;DHT22;55298;-36.624;-64.282;2023-09-19T10:48:33;7.60;68.70
59973;DHT22;55298;-36.624;-64.282;2023-09-19T10:51:11;7.60;68.60
59973;DHT22;55298;-36.624;-64.282;2023-09-19T10:53:47;7.70;68.70
59973;DHT22;55298;-36.624;-64.282;2023-09-19T10:56:27;7.60;68.70
59973;DHT22;55298;-36.624;-64.282;2023-09-19T10:59:15;7.60;68.80
59973;DHT22;55298;-36.624;-64.282;2023-09-19T11:01:49;7.50;68.60
59973;DHT22;55298;-36.624;-64.282;2023-09-19T11:04:36;7.50;68.60
59973;DHT22;55298;-36.624;-64.282;2023-09-19T11:07:10;7.60;69.60
59973;DHT22;55298;-36.624;-64.282;2023-09-19T11:16:05;7.80;69.40
59973;DHT22;55298;-36.624;-64.282;2023-09-19T11:21:40;8.00;69.60
59973;DHT22;55298;-36.624;-64.282;2023-09-19T11:24:28;8.20;70.00
59973;DHT22;55298;-36.624;-64.282;2023-09-19T11:27:09;8.00;70.10
59973;DHT22;55298;-36.624;-64.282;2023-09-19T11:29:40;8.10;70.30
59973;DHT22;55298;-36.624;-64.282;2023-09-19T11:32:12;8.30;70.20
59973;DHT22;55298;-36.624;-64.282;2023-09-19T11:34:45;8.50;69.70
59973;DHT22;55298;-36.624;-64.282;2023-09-19T11:40:29;8.70;69.00
59973;DHT22;55298;-36.624;-64.282;2023-09-19T11:42:57;8.70;68.90
59973;DHT22;55298;-36.624;-64.282;2023-09-19T11:46:01;8.70;69.30
59973;DHT22;55298;-36.624;-64.282;2023-09-19T11:48:25;8.80;68.90
59973;DHT22;55298;-36.624;-64.282;2023-09-19T11:50:54;8.90;69.10
59973;DHT22;55298;-36.624;-64.282;2023-09-19T11:53:33;9.00;68.70
59973;DHT22;55298;-36.624;-64.282;2023-09-19T11:56:06;9.10;68.00
59973;DHT22;55298;-36.624;-64.282;2023-09-19T11:58:38;9.30;67.20
59973;DHT22;55298;-36.624;-64.282;2023-09-19T12:01:07;9.60;66.30
59973;DHT22;55298;-36.624;-64.282;2023-09-19T12:03:46;9.70;64.40
59973;DHT22;55298;-36.624;-64.282;2023-09-19T12:06:18;9.90;63.80
59973;DHT22;55298;-36.624;-64.282;2023-09-19T12:08:48;10.10;62.90
59973;DHT22;55298;-36.624;-64.282;2023-09-19T12:11:18;10.50;61.10
59973;DHT22;55298;-36.624;-64.282;2023-09-19T12:13:51;11.00;59.00
59973;DHT22;55298;-36.624;-64.282;2023-09-19T12:16:20;11.20;57.60
59973;DHT22;55298;-36.624;-64.282;2023-09-19T12:21:59;10.60;58.50
59973;DHT22;55298;-36.624;-64.282;2023-09-19T12:24:31;10.70;58.60
59973;DHT22;55298;-36.624;-64.282;2023-09-19T12:27:05;10.80;58.50
59973;DHT22;55298;-36.624;-64.282;2023-09-19T12:29:44;11.40;57.20
59973;DHT22;55298;-36.624;-64.282;2023-09-19T12:32:13;11.40;57.60
59973;DHT22;55298;-36.624;-64.282;2023-09-19T12:34:56;12.20;56.00
59973;DHT22;55298;-36.624;-64.282;2023-09-19T12:37:24;12.80;53.50
59973;DHT22;55298;-36.624;-64.282;2023-09-19T12:40:06;13.40;52.00
59973;DHT22;55298;-36.624;-64.282;2023-09-19T12:42:46;14.20;50.20
59973;DHT22;55298;-36.624;-64.282;2023-09-19T12:45:17;14.60;48.30
59973;DHT22;55298;-36.624;-64.282;2023-09-19T12:53:43;13.90;49.20
59973;DHT22;55298;-36.624;-64.282;2023-09-19T12:56:13;13.50;50.60
59973;DHT22;55298;-36.624;-64.282;2023-09-19T12:58:56;13.50;50.80
59973;DHT22;55298;-36.624;-64.282;2023-09-19T13:01:27;13.70;50.90
59973;DHT22;55298;-36.624;-64.282;2023-09-19T13:04:13;13.70;49.80
59973;DHT22;55298;-36.624;-64.282;2023-09-19T13:06:48;13.70;49.50
59973;DHT22;55298;-36.624;-64.282;2023-09-19T13:09:20;13.60;49.10
59973;DHT22;55298;-36.624;-64.282;2023-09-19T13:11:48;13.50;49.60
59973;DHT22;55298;-36.624;-64.282;2023-09-19T13:14:27;13.30;49.90
59973;DHT22;55298;-36.624;-64.282;2023-09-19T13:17:00;13.00;51.00
59973;DHT22;55298;-36.624;-64.282;2023-09-19T13:19:46;13.00;51.50
59973;DHT22;55298;-36.624;-64.282;2023-09-19T13:25:12;13.00;52.20
59973;DHT22;55298;-36.624;-64.282;2023-09-19T13:27:43;12.90;50.60
59973;DHT22;55298;-36.624;-64.282;2023-09-19T13:30:15;12.90;51.10
59973;DHT22;55298;-36.624;-64.282;2023-09-19T13:32:44;12.90;50.60
59973;DHT22;55298;-36.624;-64.282;2023-09-19T13:35:14;12.80;51.00
59973;DHT22;55298;-36.624;-64.282;2023-09-19T13:37:43;12.90;51.10
59973;DHT22;55298;-36.624;-64.282;2023-09-19T13:40:15;13.20;50.60
59973;DHT22;55298;-36.624;-64.282;2023-09-19T13:42:44;13.50;50.20
59973;DHT22;55298;-36.624;-64.282;2023-09-19T13:45:15;13.90;49.60
59973;DHT22;55298;-36.624;-64.282;2023-09-19T13:47:49;14.00;48.60
59973;DHT22;55298;-36.624;-64.282;2023-09-19T13:50:16;14.10;48.70
59973;DHT22;55298;-36.624;-64.282;2023-09-19T13:52:51;14.20;48.40
59973;DHT22;55298;-36.624;-64.282;2023-09-19T13:55:23;14.20;48.40
59973;DHT22;55298;-36.624;-64.282;2023-09-19T13:57:52;14.10;48.10
59973;DHT22;55298;-36.624;-64.282;2023-09-19T14:00:23;14.10;48.80
59973;DHT22;55298;-36.624;-64.282;2023-09-19T14:02:51;14.30;47.90
59973;DHT22;55298;-36.624;-64.282;2023-09-19T14:05:19;14.70;47.80
59973;DHT22;55298;-36.624;-64.282;2023-09-19T14:07:47;15.00;46.50
59973;DHT22;55298;-36.624;-64.282;2023-09-19T14:10:18;14.90;46.10
59973;DHT22;55298;-36.624;-64.282;2023-09-19T14:12:50;14.90;46.50
59973;DHT22;55298;-36.624;-64.282;2023-09-19T14:15:21;14.90;46.30
59973;DHT22;55298;-36.624;-64.282;2023-09-19T14:17:59;14.50;46.80
59973;DHT22;55298;-36.624;-64.282;2023-09-19T14:20:28;14.30;47.50
59973;DHT22;55298;-36.624;-64.282;2023-09-19T14:22:58;14.30;47.60
59973;DHT22;55298;-36.624;-64.282;2023-09-19T14:25:28;14.10;47.60
59973;DHT22;55298;-36.624;-64.282;2023-09-19T14:28:00;14.10;48.10
59973;DHT22;55298;-36.624;-64.282;2023-09-19T14:30:29;14.30;47.80
59973;DHT22;55298;-36.624;-64.282;2023-09-19T14:33:00;14.50;47.70
59973;DHT22;55298;-36.624;-64.282;2023-09-19T14:35:30;14.60;47.40
59973;DHT22;55298;-36.624;-64.282;2023-09-19T14:37:58;14.80;47.20
59973;DHT22;55298;-36.624;-64.282;2023-09-19T14:40:26;15.30;46.90
59973;DHT22;55298;-36.624;-64.282;2023-09-19T14:42:59;15.80;45.40
59973;DHT22;55298;-36.624;-64.282;2023-09-19T14:45:28;16.10;44.30
59973;DHT22;55298;-36.624;-64.282;2023-09-19T14:47:58;16.20;44.30
59973;DHT22;55298;-36.624;-64.282;2023-09-19T14:50:26;16.50;43.10
59973;DHT22;55298;-36.624;-64.282;2023-09-19T14:52:54;16.80;42.90
59973;DHT22;55298;-36.624;-64.282;2023-09-19T14:55:22;16.90;42.20
59973;DHT22;55298;-36.624;-64.282;2023-09-19T14:57:54;17.60;42.80
59973;DHT22;55298;-36.624;-64.282;2023-09-19T15:00:27;17.00;41.60
59973;DHT22;55298;-36.624;-64.282;2023-09-19T15:02:59;17.00;42.20
59973;DHT22;55298;-36.624;-64.282;2023-09-19T15:05:28;17.30;41.50
59973;DHT22;55298;-36.624;-64.282;2023-09-19T15:07:57;17.30;41.20
59973;DHT22;55298;-36.624;-64.282;2023-09-19T15:10:32;17.10;40.10
59973;DHT22;55298;-36.624;-64.282;2023-09-19T15:13:00;17.10;40.60
59973;DHT22;55298;-36.624;-64.282;2023-09-19T15:15:28;17.10;40.70
59973;DHT22;55298;-36.624;-64.282;2023-09-19T15:17:57;16.80;40.40
59973;DHT22;55298;-36.624;-64.282;2023-09-19T15:20:25;16.60;41.10
59973;DHT22;55298;-36.624;-64.282;2023-09-19T15:22:54;16.30;41.70
59973;DHT22;55298;-36.624;-64.282;2023-09-19T15:25:22;16.00;42.60
59973;DHT22;55298;-36.624;-64.282;2023-09-19T15:27:52;16.20;42.60
59973;DHT22;55298;-36.624;-64.282;2023-09-19T15:30:20;16.30;42.80
59973;DHT22;55298;-36.624;-64.282;2023-09-19T15:32:48;16.40;41.60
59973;DHT22;55298;-36.624;-64.282;2023-09-19T15:35:21;16.40;41.60
59973;DHT22;55298;-36.624;-64.282;2023-09-19T15:37:52;16.60;41.10
59973;DHT22;55298;-36.624;-64.282;2023-09-19T15:40:22;16.80;40.70
59973;DHT22;55298;-36.624;-64.282;2023-09-19T15:42:55;16.90;39.70
59973;DHT22;55298;-36.624;-64.282;2023-09-19T15:45:25;16.90;39.50
59973;DHT22;55298;-36.624;-64.282;2023-09-19T15:47:55;16.90;38.60
59973;DHT22;55298;-36.624;-64.282;2023-09-19T15:50:23;16.80;38.00
59973;DHT22;55298;-36.624;-64.282;2023-09-19T15:52:53;16.60;37.90
59973;DHT22;55298;-36.624;-64.282;2023-09-19T15:55:22;16.60;38.00
59973;DHT22;55298;-36.624;-64.282;2023-09-19T15:57:52;16.50;37.70
59973;DHT22;55298;-36.624;-64.282;2023-09-19T16:00:21;16.60;37.80